Time;durP1;ratioP1;P1;durP2;ratioP2;P2;SDS_P1;SDS_P2;PMS_P1;PMS_P2;Temp;Humidity;BMP_temperature;BMP_pressure;BME280_temperature;BME280_humidity;BME280_pressure;Samples;Min_cycle;Max_cycle;Signal;HPM_P1;HPM_P2
2022/10/15 00:00:45;;;;;;;6.10;4.63;;;;;;;14.11;100.00;97897.03;2620880;28;20040;-79
2022/10/15 00:02:17;;;;;;;6.57;4.00;;;;;;;14.16;100.00;97896.81;2621700;28;20568;-79
2022/10/15 00:03:36;;;;;;;9.80;4.65;;;;;;;14.03;100.00;97891.28;2624140;28;20506;-79
2022/10/15 00:04:51;;;;;;;8.60;4.57;;;;;;;14.18;100.00;97894.06;2625406;28;20079;-80
2022/10/15 00:06:10;;;;;;;6.88;4.40;;;;;;;14.22;100.00;97896.47;2620125;28;20429;-80
2022/10/15 00:07:27;;;;;;;8.43;4.53;;;;;;;14.21;100.00;97892.13;2623588;28;21068;-82
2022/10/15 00:08:44;;;;;;;7.55;4.55;;;;;;;14.24;100.00;97886.69;2624523;28;20049;-79
2022/10/15 00:10:00;;;;;;;6.40;4.05;;;;;;;14.05;100.00;97885.97;2624987;28;20052;-79
2022/10/15 00:11:18;;;;;;;6.82;4.25;;;;;;;14.17;100.00;97879.22;2626385;28;20067;-83
2022/10/15 00:12:34;;;;;;;7.53;4.22;;;;;;;14.13;100.00;97887.28;2624929;28;20044;-79
2022/10/15 00:13:53;;;;;;;7.13;3.80;;;;;;;14.16;100.00;97880.13;2625917;28;20044;-79
2022/10/15 00:15:09;;;;;;;6.30;3.95;;;;;;;14.14;100.00;97885.50;2626532;28;20120;-79
2022/10/15 00:16:27;;;;;;;7.93;4.32;;;;;;;14.05;100.00;97875.44;2625207;28;20048;-79
2022/10/15 00:17:42;;;;;;;6.25;3.88;;;;;;;13.92;100.00;97873.44;2625480;28;20052;-80
2022/10/15 00:18:59;;;;;;;7.07;4.43;;;;;;;13.98;100.00;97878.41;2624300;28;20117;-80
2022/10/15 00:20:14;;;;;;;12.55;4.28;;;;;;;14.05;100.00;97870.16;2628607;28;20058;-78
2022/10/15 00:21:30;;;;;;;6.50;3.88;;;;;;;13.84;100.00;97868.56;2624212;28;20090;-80
2022/10/15 00:22:46;;;;;;;8.75;4.13;;;;;;;13.63;100.00;97865.22;2624969;28;20052;-80
2022/10/15 00:24:02;;;;;;;7.95;4.20;;;;;;;13.85;100.00;97866.78;2623013;28;20056;-79
2022/10/15 00:25:18;;;;;;;9.70;4.45;;;;;;;14.02;100.00;97860.63;2623304;28;20138;-80
2022/10/15 00:26:33;;;;;;;8.02;4.82;;;;;;;13.92;100.00;97859.44;2622543;28;20044;-79
2022/10/15 00:27:49;;;;;;;8.38;4.72;;;;;;;13.69;100.00;97862.31;2624249;28;20059;-79
2022/10/15 00:29:05;;;;;;;8.05;4.32;;;;;;;14.02;100.00;97854.53;2622343;28;20533;-80
2022/10/15 00:30:20;;;;;;;7.70;4.40;;;;;;;13.97;100.00;97858.28;2624171;28;20454;-79
2022/10/15 00:31:36;;;;;;;6.57;4.38;;;;;;;13.93;100.00;97864.59;2622793;28;20052;-80
2022/10/15 00:32:51;;;;;;;7.07;4.00;;;;;;;13.87;100.00;97864.06;2624148;28;20044;-83
2022/10/15 00:34:08;;;;;;;8.00;4.65;;;;;;;13.89;100.00;97863.06;2624356;28;20074;-80
2022/10/15 00:35:23;;;;;;;9.18;4.93;;;;;;;13.85;100.00;97858.91;2624995;28;20104;-79
2022/10/15 00:36:39;;;;;;;7.85;4.78;;;;;;;13.82;100.00;97857.25;2624700;28;20093;-79
2022/10/15 00:37:54;;;;;;;8.57;4.15;;;;;;;13.67;100.00;97860.66;2623833;28;20102;-80
2022/10/15 00:39:10;;;;;;;6.10;4.50;;;;;;;13.80;100.00;97855.63;2626255;28;20056;-79
2022/10/15 00:40:26;;;;;;;8.55;4.20;;;;;;;13.95;100.00;97862.75;2622084;28;20048;-80
2022/10/15 00:41:42;;;;;;;7.93;4.82;;;;;;;13.88;100.00;97853.47;2621676;28;20048;-79
2022/10/15 00:42:58;;;;;;;7.50;4.32;;;;;;;13.92;100.00;97852.38;2624582;28;20542;-79
2022/10/15 00:44:19;;;;;;;6.60;4.70;;;;;;;13.61;100.00;97851.31;2621936;28;20129;-80
2022/10/15 00:45:36;;;;;;;5.90;4.22;;;;;;;13.79;100.00;97846.91;2623724;28;20105;-80
2022/10/15 00:46:53;;;;;;;7.03;4.35;;;;;;;13.70;100.00;97856.13;2626026;28;20048;-82
2022/10/15 00:48:09;;;;;;;9.52;4.75;;;;;;;13.91;100.00;97852.47;2622766;28;20059;-79
2022/10/15 00:49:32;;;;;;;8.20;4.38;;;;;;;13.78;100.00;97847.84;2623562;28;20048;-80
2022/10/15 00:50:47;;;;;;;10.15;3.92;;;;;;;13.62;100.00;97853.00;2626645;28;20040;-79
2022/10/15 00:52:09;;;;;;;6.50;4.18;;;;;;;13.66;100.00;97851.06;2624311;28;20739;-79
2022/10/15 00:53:25;;;;;;;6.75;4.65;;;;;;;13.82;100.00;97851.13;2624998;28;20146;-81
2022/10/15 00:54:50;;;;;;;7.05;4.47;;;;;;;13.99;100.00;97847.66;2624557;28;20057;-80
2022/10/15 00:56:06;;;;;;;7.15;4.63;;;;;;;13.56;100.00;97853.31;2623704;28;20055;-80
2022/10/15 00:57:23;;;;;;;7.50;4.10;;;;;;;13.72;100.00;97849.91;2627781;28;20051;-80
2022/10/15 00:58:38;;;;;;;6.22;4.18;;;;;;;13.58;100.00;97845.34;2623808;28;20475;-79
2022/10/15 00:59:59;;;;;;;7.75;3.90;;;;;;;13.43;100.00;97842.50;2626900;28;20500;-79
2022/10/15 01:01:15;;;;;;;9.27;4.18;;;;;;;13.63;100.00;97843.34;2624174;28;20054;-80
2022/10/15 01:02:30;;;;;;;6.07;4.32;;;;;;;13.85;100.00;97843.09;2623309;28;20055;-80
2022/10/15 01:03:46;;;;;;;7.18;4.40;;;;;;;13.89;100.00;97839.38;2625154;28;20105;-80
2022/10/15 01:05:03;;;;;;;6.20;4.10;;;;;;;13.89;100.00;97834.13;2625755;28;20052;-79
2022/10/15 01:06:18;;;;;;;6.13;4.13;;;;;;;13.91;100.00;97831.41;2624524;28;20057;-80
2022/10/15 01:07:34;;;;;;;6.80;4.03;;;;;;;13.31;100.00;97830.84;2624378;28;20055;-79
2022/10/15 01:08:50;;;;;;;7.13;4.35;;;;;;;13.55;100.00;97825.31;2624563;28;20047;-80
2022/10/15 01:10:08;;;;;;;8.25;4.35;;;;;;;13.79;100.00;97828.47;2624169;28;20052;-80
2022/10/15 01:11:42;;;;;;;8.10;4.05;;;;;;;13.70;100.00;97827.19;2622816;28;20048;-80
2022/10/15 01:13:19;;;;;;;7.70;4.50;;;;;;;13.64;100.00;97824.84;2624626;28;20067;-81
2022/10/15 01:14:54;;;;;;;5.40;3.53;;;;;;;13.76;100.00;97827.78;2622929;28;20063;-80
2022/10/15 01:16:15;;;;;;;7.20;4.15;;;;;;;13.76;100.00;97823.38;2624967;28;20067;-80
2022/10/15 01:17:43;;;;;;;5.38;4.20;;;;;;;13.32;100.00;97819.38;2625851;28;20052;-80
2022/10/15 01:19:06;;;;;;;9.55;4.00;;;;;;;13.62;100.00;97818.81;2626892;28;20048;-80
2022/10/15 01:20:30;;;;;;;7.72;4.25;;;;;;;13.80;100.00;97811.75;2623444;28;20048;-80
2022/10/15 01:22:06;;;;;;;7.20;3.78;;;;;;;13.61;100.00;97818.88;2624454;28;20087;-79
2022/10/15 01:23:56;;;;;;;5.88;3.80;;;;;;;13.06;100.00;97818.00;2622049;28;20491;-79
2022/10/15 01:25:28;;;;;;;6.22;3.90;;;;;;;13.02;100.00;97824.34;2625504;28;20048;-79
2022/10/15 01:27:02;;;;;;;6.60;4.30;;;;;;;13.51;100.00;97823.75;2625671;28;20058;-80
2022/10/15 01:28:29;;;;;;;7.22;4.07;;;;;;;13.64;100.00;97827.47;2627682;28;20109;-79
2022/10/15 01:30:03;;;;;;;7.68;4.30;;;;;;;13.57;100.00;97828.72;2624356;28;20060;-83
2022/10/15 01:31:23;;;;;;;6.00;3.65;;;;;;;13.73;100.00;97827.94;2623556;28;20457;-79
2022/10/15 01:32:50;;;;;;;7.57;3.72;;;;;;;13.84;100.00;97823.00;2623137;28;20059;-80
2022/10/15 01:34:25;;;;;;;6.18;4.03;;;;;;;13.88;100.00;97816.63;2625834;28;20052;-79
2022/10/15 01:35:50;;;;;;;6.07;4.07;;;;;;;13.70;100.00;97814.03;2626394;28;20089;-79
2022/10/15 01:37:34;;;;;;;5.88;4.03;;;;;;;13.83;100.00;97816.03;2621695;28;20395;-79
2022/10/15 01:39:03;;;;;;;7.13;4.22;;;;;;;13.90;100.00;97808.63;2621255;28;20803;-79
2022/10/15 01:40:32;;;;;;;5.53;3.75;;;;;;;13.82;100.00;97806.41;2622360;28;20052;-84
2022/10/15 01:41:55;;;;;;;6.80;4.13;;;;;;;13.54;100.00;97805.19;2621113;28;20064;-85
2022/10/15 01:43:14;;;;;;;6.72;4.38;;;;;;;13.44;100.00;97801.34;2625183;28;20044;-79
2022/10/15 01:44:39;;;;;;;8.13;4.43;;;;;;;13.62;100.00;97796.91;2623762;28;20563;-79
2022/10/15 01:46:00;;;;;;;8.30;4.57;;;;;;;13.57;100.00;97802.41;2623122;28;20067;-80
2022/10/15 01:47:29;;;;;;;6.82;4.50;;;;;;;13.15;100.00;97801.81;2625896;28;20049;-83
2022/10/15 01:48:45;;;;;;;6.78;4.03;;;;;;;13.36;100.00;97804.31;2623554;28;20125;-79
2022/10/15 01:50:02;;;;;;;7.72;4.47;;;;;;;13.36;100.00;97799.91;2622121;28;20094;-80
2022/10/15 01:51:22;;;;;;;6.93;4.70;;;;;;;13.46;100.00;97800.31;2622061;28;20087;-83
2022/10/15 01:52:42;;;;;;;7.47;4.07;;;;;;;13.69;100.00;97800.94;2623443;28;20051;-82
2022/10/15 01:54:00;;;;;;;7.35;4.20;;;;;;;13.39;100.00;97801.53;2627459;28;20075;-79
2022/10/15 01:55:19;;;;;;;6.90;4.25;;;;;;;13.34;100.00;97807.00;2624365;28;20044;-79
2022/10/15 01:56:37;;;;;;;7.15;4.68;;;;;;;13.27;100.00;97800.38;2624174;28;20086;-85
2022/10/15 01:57:57;;;;;;;7.05;4.30;;;;;;;13.29;100.00;97798.50;2621458;28;20487;-79
2022/10/15 01:59:13;;;;;;;5.47;3.97;;;;;;;13.60;100.00;97802.25;2623235;28;20048;-79
2022/10/15 02:00:28;;;;;;;7.45;4.22;;;;;;;13.74;100.00;97793.66;2620987;28;20114;-81
2022/10/15 02:01:45;;;;;;;9.65;4.90;;;;;;;13.53;100.00;97799.09;2622027;28;20048;-80
2022/10/15 02:03:01;;;;;;;9.35;4.75;;;;;;;13.50;100.00;97796.63;2615035;28;20079;-79
2022/10/15 02:04:28;;;;;;;8.80;4.88;;;;;;;13.71;100.00;97793.81;2616130;28;20048;-81
2022/10/15 02:05:55;;;;;;;8.73;4.50;;;;;;;13.61;100.00;97792.56;2627444;28;20105;-79
2022/10/15 02:07:17;;;;;;;7.82;4.47;;;;;;;13.40;100.00;97798.81;2624908;28;20047;-85
2022/10/15 02:09:05;;;;;;;6.88;4.10;;;;;;;13.38;100.00;97797.19;2621901;28;20958;-79
2022/10/15 02:10:29;;;;;;;7.03;4.70;;;;;;;13.62;100.00;97791.63;2614222;28;20079;-84
2022/10/15 02:11:45;;;;;;;8.27;4.68;;;;;;;13.34;100.00;97796.50;2625027;28;21152;-80
2022/10/15 02:13:11;;;;;;;7.20;4.60;;;;;;;13.64;100.00;97792.44;2625667;28;20052;-79
2022/10/15 02:14:39;;;;;;;6.90;4.28;;;;;;;13.74;100.00;97792.81;2621980;28;20483;-83
2022/10/15 02:16:30;;;;;;;7.20;4.47;;;;;;;13.60;100.00;97785.63;2622175;28;20048;-81
2022/10/15 02:17:56;;;;;;;6.18;4.25;;;;;;;13.33;100.00;97786.91;2625869;28;20048;-81
2022/10/15 02:19:49;;;;;;;7.38;4.10;;;;;;;13.35;100.00;97787.69;2622631;28;20063;-80
2022/10/15 02:21:20;;;;;;;6.68;4.65;;;;;;;13.48;100.00;97780.06;2623226;28;20048;-81
2022/10/15 02:22:45;;;;;;;9.20;4.57;;;;;;;13.44;100.00;97782.94;2624149;28;20119;-79
2022/10/15 02:24:31;;;;;;;6.68;4.47;;;;;;;13.49;100.00;97773.03;2624373;28;20489;-80
2022/10/15 02:25:51;;;;;;;8.20;5.38;;;;;;;13.53;100.00;97774.56;2622967;28;20095;-80
2022/10/15 02:27:09;;;;;;;9.27;5.40;;;;;;;13.41;100.00;97776.88;2624816;28;20048;-79
2022/10/15 02:28:28;;;;;;;8.45;4.82;;;;;;;13.45;100.00;97772.31;2623196;28;20080;-79
2022/10/15 02:29:46;;;;;;;8.60;4.80;;;;;;;13.44;100.00;97764.53;2623873;28;20080;-79
2022/10/15 02:31:04;;;;;;;8.75;5.30;;;;;;;13.35;100.00;97761.38;2621353;28;20056;-79
2022/10/15 02:32:21;;;;;;;8.05;5.05;;;;;;;13.49;100.00;97751.97;2624465;28;20053;-79
2022/10/15 02:33:37;;;;;;;10.27;4.97;;;;;;;13.40;100.00;97754.09;2622594;28;20415;-80
2022/10/15 02:34:53;;;;;;;7.47;4.80;;;;;;;13.03;100.00;97755.09;2623189;28;20107;-79
2022/10/15 02:36:10;;;;;;;7.35;4.75;;;;;;;13.10;100.00;97752.09;2621003;28;20052;-79
2022/10/15 02:37:28;;;;;;;8.02;5.25;;;;;;;13.02;100.00;97751.63;2622067;28;20067;-79
2022/10/15 02:38:44;;;;;;;8.20;5.28;;;;;;;13.30;100.00;97752.91;2625969;28;20056;-80
2022/10/15 02:40:00;;;;;;;8.38;5.38;;;;;;;13.27;100.00;97745.16;2624215;28;20078;-79
2022/10/15 02:41:17;;;;;;;8.65;4.68;;;;;;;13.41;100.00;97750.56;2624280;28;20418;-80
2022/10/15 02:42:33;;;;;;;11.40;5.30;;;;;;;13.33;100.00;97752.72;2623041;28;20410;-80
2022/10/15 02:43:48;;;;;;;7.95;5.65;;;;;;;13.33;100.00;97747.47;2621823;28;20063;-79
2022/10/15 02:45:04;;;;;;;10.60;4.90;;;;;;;13.25;100.00;97750.50;2622573;28;20514;-80
2022/10/15 02:46:20;;;;;;;10.10;5.75;;;;;;;13.30;100.00;97746.78;2625588;28;20525;-80
2022/10/15 02:47:36;;;;;;;9.15;5.32;;;;;;;13.25;100.00;97747.00;2621591;28;20412;-79
2022/10/15 02:48:51;;;;;;;10.23;5.65;;;;;;;13.28;100.00;97747.69;2623036;28;20048;-86
2022/10/15 02:50:07;;;;;;;7.53;5.28;;;;;;;13.33;100.00;97744.84;2621349;28;20056;-81
2022/10/15 02:51:23;;;;;;;10.93;5.80;;;;;;;13.21;100.00;97748.09;2622329;28;20418;-79
2022/10/15 02:52:38;;;;;;;13.02;6.00;;;;;;;13.37;100.00;97746.38;2622621;28;20055;-79
2022/10/15 02:53:54;;;;;;;11.15;5.43;;;;;;;13.23;100.00;97741.84;2622309;28;20036;-79
2022/10/15 02:55:09;;;;;;;10.07;5.15;;;;;;;13.43;100.00;97747.84;2621249;28;20188;-80
2022/10/15 02:56:25;;;;;;;8.52;5.38;;;;;;;13.48;100.00;97739.75;2622968;28;20494;-79
2022/10/15 02:57:41;;;;;;;10.18;5.20;;;;;;;13.52;100.00;97747.41;2621914;28;20461;-79
2022/10/15 02:58:56;;;;;;;8.38;5.45;;;;;;;13.46;100.00;97739.00;2621735;28;20491;-79
2022/10/15 03:00:12;;;;;;;11.50;5.40;;;;;;;13.43;100.00;97742.59;2620740;28;20128;-80
2022/10/15 03:01:28;;;;;;;7.35;4.97;;;;;;;13.51;100.00;97744.84;2624721;28;20087;-79
2022/10/15 03:02:44;;;;;;;7.95;4.85;;;;;;;13.47;100.00;97741.53;2621356;28;20044;-79
2022/10/15 03:04:00;;;;;;;6.53;4.85;;;;;;;13.09;100.00;97750.38;2620946;28;20047;-80
2022/10/15 03:05:16;;;;;;;8.45;5.40;;;;;;;13.37;100.00;97746.38;2621205;28;20044;-79
2022/10/15 03:06:32;;;;;;;8.63;5.47;;;;;;;13.55;100.00;97746.44;2622536;28;20056;-81
2022/10/15 03:07:47;;;;;;;7.30;4.88;;;;;;;13.30;100.00;97745.00;2625042;28;20048;-79
2022/10/15 03:09:03;;;;;;;8.57;5.20;;;;;;;13.27;100.00;97742.53;2623157;28;20514;-79
2022/10/15 03:10:19;;;;;;;8.95;5.10;;;;;;;13.23;100.00;97748.84;2622339;28;20048;-78
2022/10/15 03:11:37;;;;;;;8.10;5.63;;;;;;;13.39;100.00;97741.88;2623920;28;20862;-78
2022/10/15 03:12:52;;;;;;;10.82;6.00;;;;;;;13.43;100.00;97739.97;2624300;28;20159;-81
2022/10/15 03:14:08;;;;;;;10.75;5.53;;;;;;;13.27;100.00;97739.91;2620947;28;20130;-79
2022/10/15 03:15:23;;;;;;;8.43;5.28;;;;;;;13.37;100.00;97737.66;2622923;28;20407;-79
2022/10/15 03:16:39;;;;;;;8.27;5.53;;;;;;;13.47;100.00;97736.28;2621478;28;20601;-82
2022/10/15 03:17:55;;;;;;;9.90;5.47;;;;;;;13.55;100.00;97739.38;2621281;28;20051;-84
2022/10/15 03:19:10;;;;;;;9.20;5.68;;;;;;;13.52;100.00;97744.78;2621493;28;20058;-79
2022/10/15 03:20:26;;;;;;;8.65;5.78;;;;;;;13.50;100.00;97737.91;2621414;28;20097;-79
2022/10/15 03:21:42;;;;;;;8.68;5.38;;;;;;;13.30;100.00;97736.25;2623608;28;20058;-79
2022/10/15 03:22:57;;;;;;;9.55;6.20;;;;;;;13.50;100.00;97737.91;2621770;28;20052;-79
2022/10/15 03:24:13;;;;;;;8.25;5.57;;;;;;;13.42;100.00;97736.50;2622390;28;20069;-79
2022/10/15 03:25:28;;;;;;;9.10;6.25;;;;;;;13.58;100.00;97733.09;2622812;28;20048;-78
2022/10/15 03:26:44;;;;;;;10.07;6.13;;;;;;;13.50;100.00;97730.88;2620949;28;20048;-79
2022/10/15 03:28:00;;;;;;;9.20;5.75;;;;;;;13.56;100.00;97729.72;2622847;28;20379;-79
2022/10/15 03:29:15;;;;;;;9.05;5.95;;;;;;;13.64;100.00;97724.88;2614989;28;20458;-80
2022/10/15 03:30:31;;;;;;;9.13;5.25;;;;;;;13.60;100.00;97723.34;2620129;28;20052;-78
2022/10/15 03:31:46;;;;;;;8.80;5.82;;;;;;;13.60;100.00;97725.97;2622248;28;20052;-79
2022/10/15 03:33:02;;;;;;;8.40;5.95;;;;;;;13.68;100.00;97726.41;2623264;28;20079;-78
2022/10/15 03:34:18;;;;;;;9.68;6.53;;;;;;;13.44;100.00;97728.53;2624633;28;20057;-82
2022/10/15 03:35:33;;;;;;;12.05;6.30;;;;;;;13.44;100.00;97732.97;2621995;28;20056;-85
2022/10/15 03:36:49;;;;;;;9.90;6.28;;;;;;;13.49;100.00;97730.94;2622122;28;20246;-79
2022/10/15 03:38:05;;;;;;;10.25;6.07;;;;;;;13.50;100.00;97732.63;2621012;28;20048;-79
2022/10/15 03:39:21;;;;;;;12.05;6.60;;;;;;;13.51;100.00;97731.72;2624292;28;20055;-83
2022/10/15 03:40:37;;;;;;;9.80;5.78;;;;;;;13.48;100.00;97729.25;2621544;28;20412;-82
2022/10/15 03:41:53;;;;;;;9.68;6.13;;;;;;;13.41;100.00;97721.66;2624787;28;20074;-83
2022/10/15 03:43:08;;;;;;;7.90;5.80;;;;;;;13.59;100.00;97723.41;2622901;28;20460;-82
2022/10/15 03:44:23;;;;;;;10.77;6.47;;;;;;;13.62;100.00;97721.50;2622584;28;20434;-80
2022/10/15 03:45:39;;;;;;;8.90;5.85;;;;;;;13.29;100.00;97724.91;2627419;28;20056;-78
2022/10/15 03:46:55;;;;;;;10.85;6.60;;;;;;;13.32;100.00;97729.13;2622578;28;20082;-79
2022/10/15 03:48:10;;;;;;;8.73;6.03;;;;;;;13.37;100.00;97725.34;2623192;28;20041;-79
2022/10/15 03:49:26;;;;;;;10.18;6.30;;;;;;;13.32;100.00;97729.13;2622570;28;20075;-78
2022/10/15 03:50:41;;;;;;;8.45;5.93;;;;;;;13.46;100.00;97725.84;2624179;28;20478;-79
2022/10/15 03:51:57;;;;;;;8.57;5.88;;;;;;;13.46;100.00;97717.97;2627071;28;20060;-81
2022/10/15 03:53:13;;;;;;;10.00;6.30;;;;;;;13.22;100.00;97718.25;2622650;28;20442;-80
2022/10/15 03:54:28;;;;;;;9.10;6.70;;;;;;;13.33;100.00;97715.91;2625450;28;20048;-79
2022/10/15 03:55:44;;;;;;;8.80;6.18;;;;;;;13.29;100.00;97714.38;2622701;28;20895;-78
2022/10/15 03:56:59;;;;;;;10.95;6.53;;;;;;;13.38;100.00;97713.91;2625343;28;20063;-79
2022/10/15 03:58:15;;;;;;;10.88;6.13;;;;;;;12.96;100.00;97713.38;2624449;28;20052;-79
2022/10/15 03:59:31;;;;;;;11.70;6.88;;;;;;;13.34;100.00;97716.75;2612678;28;20052;-80
2022/10/15 04:00:46;;;;;;;12.13;6.90;;;;;;;13.21;100.00;97712.16;2615959;28;20098;-79
2022/10/15 04:02:02;;;;;;;9.65;6.18;;;;;;;13.21;100.00;97709.53;2624298;28;20048;-79
2022/10/15 04:03:17;;;;;;;10.13;6.28;;;;;;;13.39;100.00;97714.75;2624893;28;20044;-79
2022/10/15 04:04:33;;;;;;;11.90;7.13;;;;;;;13.36;100.00;97704.41;2624592;28;20055;-80
2022/10/15 04:05:52;;;;;;;9.40;6.43;;;;;;;13.34;100.00;97707.09;2624947;28;20059;-81
2022/10/15 04:07:08;;;;;;;11.30;6.60;;;;;;;13.07;100.00;97701.47;2624177;28;20059;-79
2022/10/15 04:08:24;;;;;;;11.43;7.47;;;;;;;13.34;100.00;97707.09;2626278;28;20510;-83
2022/10/15 04:09:39;;;;;;;12.30;6.90;;;;;;;13.41;100.00;97708.50;2622981;28;20044;-79
2022/10/15 04:10:55;;;;;;;10.77;6.93;;;;;;;13.25;100.00;97708.44;2623396;28;20106;-80
2022/10/15 04:12:10;;;;;;;10.80;7.18;;;;;;;13.50;100.00;97706.34;2623269;28;20055;-79
2022/10/15 04:13:27;;;;;;;12.63;6.75;;;;;;;13.38;100.00;97710.44;2625108;28;20509;-80
2022/10/15 04:14:43;;;;;;;9.18;6.63;;;;;;;13.57;100.00;97707.75;2624718;28;20044;-80
2022/10/15 04:15:58;;;;;;;11.40;6.80;;;;;;;13.40;100.00;97709.41;2625577;28;20048;-79
2022/10/15 04:17:14;;;;;;;10.75;6.65;;;;;;;13.49;100.00;97712.53;2623389;28;20075;-80
2022/10/15 04:18:30;;;;;;;10.20;6.47;;;;;;;13.38;100.00;97711.28;2621960;28;20407;-80
2022/10/15 04:19:46;;;;;;;10.60;6.30;;;;;;;13.56;100.00;97711.31;2624178;28;20063;-80
2022/10/15 04:21:01;;;;;;;11.32;6.50;;;;;;;13.32;100.00;97710.72;2627135;28;20084;-79
2022/10/15 04:22:17;;;;;;;10.60;6.32;;;;;;;13.42;100.00;97704.94;2623469;28;20838;-80
2022/10/15 04:23:33;;;;;;;11.02;6.15;;;;;;;13.40;100.00;97704.16;2628456;28;20071;-80
2022/10/15 04:24:49;;;;;;;10.90;7.03;;;;;;;13.22;100.00;97702.47;2624480;28;20052;-79
2022/10/15 04:26:05;;;;;;;11.75;7.28;;;;;;;13.44;100.00;97706.69;2622352;28;20078;-80
2022/10/15 04:27:20;;;;;;;11.48;6.43;;;;;;;13.47;100.00;97706.50;2623709;28;20048;-79
2022/10/15 04:28:36;;;;;;;9.18;6.32;;;;;;;13.53;100.00;97703.56;2626132;28;20068;-80
2022/10/15 04:29:52;;;;;;;9.38;6.22;;;;;;;13.51;100.00;97703.66;2623782;28;20552;-81
2022/10/15 04:31:10;;;;;;;10.70;6.78;;;;;;;13.40;100.00;97700.69;2623408;28;20059;-79
2022/10/15 04:32:44;;;;;;;11.35;7.22;;;;;;;13.30;100.00;97712.59;2614216;28;20060;-80
2022/10/15 04:33:59;;;;;;;10.70;6.53;;;;;;;13.36;100.00;97704.41;2623008;28;20486;-79
2022/10/15 04:35:18;;;;;;;15.32;7.35;;;;;;;13.46;100.00;97710.06;2623570;28;20072;-80
2022/10/15 04:36:33;;;;;;;11.50;6.47;;;;;;;13.52;100.00;97712.38;2624070;28;20040;-81
2022/10/15 04:37:49;;;;;;;10.73;6.97;;;;;;;13.45;100.00;97718.88;2623427;28;20072;-79
2022/10/15 04:39:08;;;;;;;10.68;7.03;;;;;;;13.50;100.00;97714.22;2623796;28;20159;-79
2022/10/15 04:40:26;;;;;;;9.35;6.43;;;;;;;13.61;100.00;97718.94;2624851;28;20048;-79
2022/10/15 04:41:42;;;;;;;8.65;5.70;;;;;;;13.28;100.00;97715.31;2626525;28;20122;-79
2022/10/15 04:42:57;;;;;;;9.23;6.30;;;;;;;13.13;100.00;97715.16;2622826;28;20167;-79
2022/10/15 04:44:13;;;;;;;11.32;6.35;;;;;;;12.94;100.00;97714.38;2623877;28;20064;-79
2022/10/15 04:45:29;;;;;;;12.50;6.72;;;;;;;13.27;100.00;97713.63;2623721;28;20231;-78
2022/10/15 04:46:44;;;;;;;9.95;6.18;;;;;;;13.39;100.00;97712.97;2625642;28;20056;-78
2022/10/15 04:48:00;;;;;;;12.13;7.32;;;;;;;13.44;100.00;97714.56;2622013;28;20565;-80
2022/10/15 04:49:15;;;;;;;11.30;7.20;;;;;;;13.49;100.00;97718.66;2624716;28;20082;-80
2022/10/15 04:50:31;;;;;;;9.50;6.53;;;;;;;13.35;100.00;97711.44;2625987;28;20051;-80
2022/10/15 04:51:47;;;;;;;8.15;6.03;;;;;;;13.40;100.00;97708.56;2624067;28;20052;-79
2022/10/15 04:53:02;;;;;;;11.50;6.68;;;;;;;13.54;100.00;97706.09;2625273;28;20402;-79
2022/10/15 04:54:19;;;;;;;9.60;6.40;;;;;;;13.46;100.00;97704.81;2612219;28;20044;-80
2022/10/15 04:55:34;;;;;;;9.50;6.35;;;;;;;13.41;100.00;97708.50;2619408;28;20549;-80
2022/10/15 04:56:50;;;;;;;10.90;6.88;;;;;;;13.09;100.00;97704.88;2625658;28;20763;-79
2022/10/15 04:58:05;;;;;;;12.85;6.72;;;;;;;13.37;100.00;97712.19;2626150;28;20052;-80
2022/10/15 04:59:21;;;;;;;12.25;6.38;;;;;;;13.53;100.00;97714.06;2625994;28;20419;-80
2022/10/15 05:00:37;;;;;;;9.35;6.07;;;;;;;13.26;100.00;97709.25;2625758;28;20658;-80
2022/10/15 05:01:53;;;;;;;9.82;6.60;;;;;;;13.24;100.00;97706.72;2627693;28;20040;-80
2022/10/15 05:03:08;;;;;;;13.38;6.43;;;;;;;13.50;100.00;97707.22;2627018;28;20072;-79
2022/10/15 05:04:27;;;;;;;11.63;6.60;;;;;;;13.38;100.00;97700.75;2625118;28;20071;-79
2022/10/15 05:05:42;;;;;;;10.20;6.30;;;;;;;13.37;100.00;97701.69;2625475;28;20396;-79
2022/10/15 05:06:58;;;;;;;9.00;6.07;;;;;;;13.17;100.00;97701.88;2627015;28;20044;-79
2022/10/15 05:08:16;;;;;;;9.88;6.47;;;;;;;13.44;100.00;97704.88;2624005;28;20059;-79
2022/10/15 05:09:32;;;;;;;9.38;6.40;;;;;;;13.32;100.00;97703.72;2625405;28;20506;-79
2022/10/15 05:10:47;;;;;;;12.68;6.05;;;;;;;13.22;100.00;97705.97;2626170;28;20049;-79
2022/10/15 05:12:03;;;;;;;10.13;5.97;;;;;;;13.38;100.00;97702.56;2624159;28;20052;-80
2022/10/15 05:13:19;;;;;;;9.50;5.85;;;;;;;13.46;100.00;97702.19;2623778;28;20535;-79
2022/10/15 05:14:35;;;;;;;8.75;6.05;;;;;;;13.39;100.00;97699.81;2622612;28;20440;-79
2022/10/15 05:15:50;;;;;;;9.23;6.40;;;;;;;13.62;100.00;97704.84;2625103;28;20040;-79
2022/10/15 05:17:06;;;;;;;9.27;5.75;;;;;;;13.66;100.00;97704.59;2627119;28;20070;-79
2022/10/15 05:18:21;;;;;;;10.77;5.72;;;;;;;13.53;100.00;97707.03;2626078;28;20633;-80
2022/10/15 05:19:38;;;;;;;10.98;6.20;;;;;;;13.39;100.00;97710.34;2626532;28;20126;-79
2022/10/15 05:21:00;;;;;;;10.07;6.30;;;;;;;13.54;100.00;97708.75;2626450;28;20048;-80
2022/10/15 05:22:16;;;;;;;11.85;6.15;;;;;;;13.30;100.00;97713.47;2626429;28;20044;-79
2022/10/15 05:23:32;;;;;;;8.25;6.00;;;;;;;13.55;100.00;97709.59;2626518;28;20071;-79
2022/10/15 05:24:48;;;;;;;11.00;7.05;;;;;;;13.70;100.00;97714.06;2626702;28;20460;-80
2022/10/15 05:26:06;;;;;;;10.55;7.10;;;;;;;13.61;100.00;97709.28;2622985;28;20082;-79
2022/10/15 05:27:21;;;;;;;10.40;6.40;;;;;;;13.49;100.00;97705.50;2625667;28;20089;-79
2022/10/15 05:28:37;;;;;;;10.88;6.75;;;;;;;13.42;100.00;97712.84;2623882;28;20075;-79
2022/10/15 05:29:53;;;;;;;9.07;6.43;;;;;;;13.66;100.00;97711.66;2624160;28;20052;-79
2022/10/15 05:31:12;;;;;;;10.90;6.75;;;;;;;13.60;100.00;97706.72;2623463;28;20139;-80
2022/10/15 05:32:27;;;;;;;10.43;6.45;;;;;;;13.45;100.00;97703.94;2627302;28;20044;-81
2022/10/15 05:33:43;;;;;;;9.05;6.00;;;;;;;13.65;100.00;97708.16;2623062;28;20143;-80
2022/10/15 05:34:59;;;;;;;13.00;6.50;;;;;;;13.47;100.00;97712.59;2621123;28;20694;-80
2022/10/15 05:36:19;;;;;;;10.25;6.40;;;;;;;13.68;100.00;97715.91;2622554;28;20077;-80
2022/10/15 05:37:35;;;;;;;10.32;6.75;;;;;;;13.45;100.00;97711.00;2624946;28;20097;-81
2022/10/15 05:38:59;;;;;;;10.15;6.50;;;;;;;13.61;100.00;97711.91;2622965;28;20048;-80
2022/10/15 05:40:15;;;;;;;9.48;6.38;;;;;;;13.39;100.00;97706.88;2623329;28;20099;-80
2022/10/15 05:41:30;;;;;;;10.40;6.40;;;;;;;13.59;100.00;97710.28;2623028;28;20093;-79
2022/10/15 05:42:52;;;;;;;11.98;6.80;;;;;;;13.63;100.00;97712.66;2625173;28;20457;-82
2022/10/15 05:44:07;;;;;;;10.25;6.43;;;;;;;13.59;100.00;97710.28;2624098;28;20127;-79
2022/10/15 05:45:23;;;;;;;10.00;7.10;;;;;;;13.48;100.00;97711.69;2620399;28;20048;-79
2022/10/15 05:46:38;;;;;;;10.13;6.80;;;;;;;13.63;100.00;97714.47;2623730;28;20048;-80
2022/10/15 05:47:55;;;;;;;11.70;6.13;;;;;;;13.45;100.00;97714.47;2623289;28;20048;-80
2022/10/15 05:49:10;;;;;;;11.50;7.05;;;;;;;13.44;100.00;97715.41;2623811;28;20047;-79
2022/10/15 05:50:26;;;;;;;8.43;6.13;;;;;;;13.72;100.00;97719.22;2622737;28;20139;-79
2022/10/15 05:51:42;;;;;;;10.55;6.55;;;;;;;13.75;100.00;97715.59;2624728;28;20047;-78
2022/10/15 05:52:57;;;;;;;10.40;6.93;;;;;;;13.80;100.00;97718.81;2624339;28;20044;-79
2022/10/15 05:54:13;;;;;;;10.85;6.22;;;;;;;13.22;100.00;97715.63;2626865;28;20131;-83
2022/10/15 05:55:29;;;;;;;10.40;6.70;;;;;;;12.94;100.00;97714.38;2625719;28;20937;-79
2022/10/15 05:56:45;;;;;;;9.63;6.80;;;;;;;13.11;100.00;97721.41;2615405;28;20136;-78
2022/10/15 05:58:04;;;;;;;13.70;7.40;;;;;;;13.27;100.00;97722.34;2618863;28;20048;-79
2022/10/15 05:59:19;;;;;;;10.77;6.50;;;;;;;13.22;100.00;97723.50;2613852;28;20553;-79
2022/10/15 06:00:35;;;;;;;10.10;6.80;;;;;;;13.55;100.00;97726.22;2617915;28;20090;-79
2022/10/15 06:01:50;;;;;;;11.38;7.35;;;;;;;13.56;100.00;97725.28;2622506;28;20040;-80
2022/10/15 06:03:11;;;;;;;11.88;6.80;;;;;;;13.29;100.00;97722.28;2625446;28;20483;-78